sensor_id;sensor_type;location;lat;lon;timestamp;pressure;altitude;pressure_sealevel;temperature;humidity
77431;BME280;66498;48.564;19.272;2023-05-20T00:02:07;98164.28;;;10.25;94.20
77431;BME280;66498;48.564;19.272;2023-05-20T00:04:32;98159.69;;;10.27;94.13
77431;BME280;66498;48.564;19.272;2023-05-20T00:06:58;98171.38;;;10.05;94.41
77431;BME280;66498;48.564;19.272;2023-05-20T00:09:23;98165.94;;;10.00;94.72
77431;BME280;66498;48.564;19.272;2023-05-20T00:11:49;98153.00;;;10.25;93.95
77431;BME280;66498;48.564;19.272;2023-05-20T00:14:14;98156.84;;;10.29;93.43
77431;BME280;66498;48.564;19.272;2023-05-20T00:16:40;98155.22;;;10.41;92.43
77431;BME280;66498;48.564;19.272;2023-05-20T00:19:06;98151.63;;;10.09;93.61
77431;BME280;66498;48.564;19.272;2023-05-20T00:21:31;98147.13;;;10.49;90.91
77431;BME280;66498;48.564;19.272;2023-05-20T00:23:58;98157.84;;;10.48;90.84
77431;BME280;66498;48.564;19.272;2023-05-20T00:26:23;98159.03;;;10.52;90.69
77431;BME280;66498;48.564;19.272;2023-05-20T00:28:48;98159.69;;;10.07;93.06
77431;BME280;66498;48.564;19.272;2023-05-20T00:31:14;98168.16;;;9.96;93.84
77431;BME280;66498;48.564;19.272;2023-05-20T00:33:40;98169.94;;;10.15;92.96
77431;BME280;66498;48.564;19.272;2023-05-20T00:36:05;98158.66;;;9.75;93.47
77431;BME280;66498;48.564;19.272;2023-05-20T00:38:32;98164.09;;;9.80;92.95
77431;BME280;66498;48.564;19.272;2023-05-20T00:40:57;98154.44;;;9.87;92.35
77431;BME280;66498;48.564;19.272;2023-05-20T00:43:22;98154.81;;;9.84;92.17
77431;BME280;66498;48.564;19.272;2023-05-20T00:45:52;98152.59;;;9.88;92.15
77431;BME280;66498;48.564;19.272;2023-05-20T00:48:18;98150.78;;;10.15;90.25
77431;BME280;66498;48.564;19.272;2023-05-20T00:50:46;98153.81;;;10.18;89.40
77431;BME280;66498;48.564;19.272;2023-05-20T00:53:12;98159.47;;;10.29;88.78
77431;BME280;66498;48.564;19.272;2023-05-20T00:55:38;98154.44;;;10.27;89.51
77431;BME280;66498;48.564;19.272;2023-05-20T00:58:04;98151.19;;;10.18;89.91
77431;BME280;66498;48.564;19.272;2023-05-20T01:00:30;98158.00;;;9.46;93.08
77431;BME280;66498;48.564;19.272;2023-05-20T01:02:55;98162.66;;;9.44;93.32
77431;BME280;66498;48.564;19.272;2023-05-20T01:05:21;98157.59;;;9.50;93.46
77431;BME280;66498;48.564;19.272;2023-05-20T01:07:47;98165.47;;;9.43;92.96
77431;BME280;66498;48.564;19.272;2023-05-20T01:10:12;98155.69;;;9.17;94.25
77431;BME280;66498;48.564;19.272;2023-05-20T01:12:41;98149.47;;;9.11;94.36
77431;BME280;66498;48.564;19.272;2023-05-20T01:15:09;98151.97;;;9.46;93.47
77431;BME280;66498;48.564;19.272;2023-05-20T01:17:40;98146.16;;;9.90;91.30
77431;BME280;66498;48.564;19.272;2023-05-20T01:20:09;98146.72;;;9.39;92.97
77431;BME280;66498;48.564;19.272;2023-05-20T01:22:37;98138.00;;;9.19;93.88
77431;BME280;66498;48.564;19.272;2023-05-20T01:25:02;98142.63;;;9.23;94.43
77431;BME280;66498;48.564;19.272;2023-05-20T01:27:28;98146.72;;;9.39;93.50
77431;BME280;66498;48.564;19.272;2023-05-20T01:29:54;98153.91;;;9.17;93.72
77431;BME280;66498;48.564;19.272;2023-05-20T01:32:23;98148.41;;;8.99;94.74
77431;BME280;66498;48.564;19.272;2023-05-20T01:34:51;98148.66;;;9.11;94.49
77431;BME280;66498;48.564;19.272;2023-05-20T01:37:18;98145.84;;;9.19;95.10
77431;BME280;66498;48.564;19.272;2023-05-20T01:39:45;98144.16;;;8.98;95.55
77431;BME280;66498;48.564;19.272;2023-05-20T01:42:11;98141.38;;;9.13;95.06
77431;BME280;66498;48.564;19.272;2023-05-20T01:44:38;98144.31;;;9.44;93.68
77431;BME280;66498;48.564;19.272;2023-05-20T01:47:04;98142.09;;;9.48;94.07
77431;BME280;66498;48.564;19.272;2023-05-20T01:49:29;98141.09;;;9.49;94.03
77431;BME280;66498;48.564;19.272;2023-05-20T01:51:55;98133.38;;;9.28;94.73
77431;BME280;66498;48.564;19.272;2023-05-20T01:54:21;98139.63;;;9.33;94.50
77431;BME280;66498;48.564;19.272;2023-05-20T01:56:47;98132.78;;;9.26;94.31
77431;BME280;66498;48.564;19.272;2023-05-20T01:59:12;98148.06;;;9.22;94.51
77431;BME280;66498;48.564;19.272;2023-05-20T02:01:37;98146.16;;;8.96;95.60
77431;BME280;66498;48.564;19.272;2023-05-20T02:04:03;98145.56;;;8.94;95.42
77431;BME280;66498;48.564;19.272;2023-05-20T02:06:29;98139.03;;;9.24;94.24
77431;BME280;66498;48.564;19.272;2023-05-20T02:08:54;98139.06;;;9.38;92.77
77431;BME280;66498;48.564;19.272;2023-05-20T02:11:20;98139.56;;;9.13;92.28
77431;BME280;66498;48.564;19.272;2023-05-20T02:13:46;98138.59;;;9.21;92.16
77431;BME280;66498;48.564;19.272;2023-05-20T02:16:11;98142.81;;;9.15;92.42
77431;BME280;66498;48.564;19.272;2023-05-20T02:18:37;98139.81;;;9.18;92.25
77431;BME280;66498;48.564;19.272;2023-05-20T02:21:03;98141.19;;;9.08;92.93
77431;BME280;66498;48.564;19.272;2023-05-20T02:23:33;98136.28;;;8.91;93.91
77431;BME280;66498;48.564;19.272;2023-05-20T02:25:58;98146.38;;;8.94;93.56
77431;BME280;66498;48.564;19.272;2023-05-20T02:28:24;98157.81;;;8.80;94.16
77431;BME280;66498;48.564;19.272;2023-05-20T02:30:50;98155.22;;;8.87;93.21
77431;BME280;66498;48.564;19.272;2023-05-20T02:33:16;98157.34;;;8.70;93.39
77431;BME280;66498;48.564;19.272;2023-05-20T02:35:41;98150.47;;;9.23;91.10
77431;BME280;66498;48.564;19.272;2023-05-20T02:38:07;98154.84;;;9.03;92.08
77431;BME280;66498;48.564;19.272;2023-05-20T02:40:32;98147.78;;;8.90;93.00
77431;BME280;66498;48.564;19.272;2023-05-20T02:42:59;98147.19;;;8.95;93.51
77431;BME280;66498;48.564;19.272;2023-05-20T02:45:24;98163.16;;;9.20;92.59
77431;BME280;66498;48.564;19.272;2023-05-20T02:47:50;98161.59;;;9.32;92.08
77431;BME280;66498;48.564;19.272;2023-05-20T02:50:15;98160.50;;;9.07;93.96
77431;BME280;66498;48.564;19.272;2023-05-20T02:52:41;98165.16;;;9.05;92.20
77431;BME280;66498;48.564;19.272;2023-05-20T02:55:07;98167.38;;;9.08;92.52
77431;BME280;66498;48.564;19.272;2023-05-20T02:57:33;98165.75;;;9.13;92.18
77431;BME280;66498;48.564;19.272;2023-05-20T03:00:03;98168.03;;;9.23;92.71
77431;BME280;66498;48.564;19.272;2023-05-20T03:02:29;98165.41;;;9.30;92.41
77431;BME280;66498;48.564;19.272;2023-05-20T03:04:55;98171.88;;;9.34;92.85
77431;BME280;66498;48.564;19.272;2023-05-20T03:07:20;98166.84;;;9.32;93.07
77431;BME280;66498;48.564;19.272;2023-05-20T03:09:46;98161.13;;;9.09;94.90
77431;BME280;66498;48.564;19.272;2023-05-20T03:12:12;98160.00;;;8.76;95.68
77431;BME280;66498;48.564;19.272;2023-05-20T03:14:37;98157.13;;;8.71;95.56
77431;BME280;66498;48.564;19.272;2023-05-20T03:17:03;98161.53;;;8.64;95.15
77431;BME280;66498;48.564;19.272;2023-05-20T03:19:28;98163.91;;;8.52;94.99
77431;BME280;66498;48.564;19.272;2023-05-20T03:21:54;98175.44;;;8.37;95.17
77431;BME280;66498;48.564;19.272;2023-05-20T03:24:19;98172.50;;;8.25;96.11
77431;BME280;66498;48.564;19.272;2023-05-20T03:26:47;98172.88;;;8.43;95.54
77431;BME280;66498;48.564;19.272;2023-05-20T03:29:13;98175.44;;;8.37;95.98
77431;BME280;66498;48.564;19.272;2023-05-20T03:31:38;98180.91;;;8.70;95.01
77431;BME280;66498;48.564;19.272;2023-05-20T03:34:04;98177.56;;;8.89;93.97
77431;BME280;66498;48.564;19.272;2023-05-20T03:36:29;98176.75;;;8.89;94.09
77431;BME280;66498;48.564;19.272;2023-05-20T03:38:55;98180.03;;;8.97;93.72
77431;BME280;66498;48.564;19.272;2023-05-20T03:41:21;98174.59;;;8.99;93.83
77431;BME280;66498;48.564;19.272;2023-05-20T03:43:47;98177.06;;;9.07;93.95
77431;BME280;66498;48.564;19.272;2023-05-20T03:46:12;98173.66;;;9.20;94.11
77431;BME280;66498;48.564;19.272;2023-05-20T03:48:38;98178.75;;;9.35;94.15
77431;BME280;66498;48.564;19.272;2023-05-20T03:51:03;98177.56;;;9.57;93.02
77431;BME280;66498;48.564;19.272;2023-05-20T03:53:28;98186.47;;;9.56;93.74
77431;BME280;66498;48.564;19.272;2023-05-20T03:55:54;98192.91;;;9.54;92.76
77431;BME280;66498;48.564;19.272;2023-05-20T03:58:19;98199.16;;;9.59;92.79
77431;BME280;66498;48.564;19.272;2023-05-20T04:00:47;98195.50;;;9.54;92.93
77431;BME280;66498;48.564;19.272;2023-05-20T04:03:13;98193.97;;;9.92;91.49
77431;BME280;66498;48.564;19.272;2023-05-20T04:05:39;98195.97;;;9.70;92.24
77431;BME280;66498;48.564;19.272;2023-05-20T04:08:05;98198.41;;;9.85;92.07
77431;BME280;66498;48.564;19.272;2023-05-20T04:10:31;98198.19;;;9.80;92.26
77431;BME280;66498;48.564;19.272;2023-05-20T04:12:57;98199.03;;;10.01;92.36
77431;BME280;66498;48.564;19.272;2023-05-20T04:15:22;98203.66;;;9.79;93.67
77431;BME280;66498;48.564;19.272;2023-05-20T04:17:49;98207.50;;;9.89;92.91
77431;BME280;66498;48.564;19.272;2023-05-20T04:20:17;98206.50;;;10.04;93.96
77431;BME280;66498;48.564;19.272;2023-05-20T04:22:43;98203.06;;;9.97;94.66
77431;BME280;66498;48.564;19.272;2023-05-20T04:25:09;98199.81;;;10.01;95.18
77431;BME280;66498;48.564;19.272;2023-05-20T04:27:35;98197.03;;;10.23;94.39
77431;BME280;66498;48.564;19.272;2023-05-20T04:30:03;98198.25;;;10.33;95.05
77431;BME280;66498;48.564;19.272;2023-05-20T04:32:28;98189.75;;;10.45;94.33
77431;BME280;66498;48.564;19.272;2023-05-20T04:34:54;98186.13;;;10.39;95.36
77431;BME280;66498;48.564;19.272;2023-05-20T04:37:24;98198.03;;;10.28;95.86
77431;BME280;66498;48.564;19.272;2023-05-20T04:39:49;98188.53;;;10.54;95.50
77431;BME280;66498;48.564;19.272;2023-05-20T04:42:15;98191.72;;;10.76;94.71
77431;BME280;66498;48.564;19.272;2023-05-20T04:44:43;98192.72;;;10.81;94.16
77431;BME280;66498;48.564;19.272;2023-05-20T04:47:11;98190.84;;;10.95;93.90
77431;BME280;66498;48.564;19.272;2023-05-20T04:49:37;98189.63;;;11.04;94.09
77431;BME280;66498;48.564;19.272;2023-05-20T04:52:03;98192.22;;;11.11;94.08
77431;BME280;66498;48.564;19.272;2023-05-20T04:54:30;98201.09;;;11.10;94.95
77431;BME280;66498;48.564;19.272;2023-05-20T04:56:57;98197.19;;;11.26;94.36
77431;BME280;66498;48.564;19.272;2023-05-20T04:59:23;98199.03;;;11.25;93.99
77431;BME280;66498;48.564;19.272;2023-05-20T05:01:49;98197.06;;;11.52;92.80
77431;BME280;66498;48.564;19.272;2023-05-20T05:04:14;98188.69;;;11.69;92.98
77431;BME280;66498;48.564;19.272;2023-05-20T05:06:40;98179.59;;;11.65;91.89
77431;BME280;66498;48.564;19.272;2023-05-20T05:09:05;98185.22;;;11.68;92.55
77431;BME280;66498;48.564;19.272;2023-05-20T05:11:32;98191.19;;;11.89;92.00
77431;BME280;66498;48.564;19.272;2023-05-20T05:13:58;98186.81;;;12.07;91.77
77431;BME280;66498;48.564;19.272;2023-05-20T05:16:23;98193.31;;;12.05;91.81
77431;BME280;66498;48.564;19.272;2023-05-20T05:18:49;98191.22;;;12.14;91.72
77431;BME280;66498;48.564;19.272;2023-05-20T05:21:15;98193.56;;;12.47;91.15
77431;BME280;66498;48.564;19.272;2023-05-20T05:23:40;98185.25;;;12.87;89.15
77431;BME280;66498;48.564;19.272;2023-05-20T05:26:06;98182.97;;;13.57;86.40
77431;BME280;66498;48.564;19.272;2023-05-20T05:28:32;98173.38;;;14.16;83.49
77431;BME280;66498;48.564;19.272;2023-05-20T05:30:58;98180.13;;;14.12;82.45
77431;BME280;66498;48.564;19.272;2023-05-20T05:33:23;98186.34;;;14.41;82.40
77431;BME280;66498;48.564;19.272;2023-05-20T05:35:49;98185.31;;;14.66;81.84
77431;BME280;66498;48.564;19.272;2023-05-20T05:38:15;98179.94;;;14.61;82.32
77431;BME280;66498;48.564;19.272;2023-05-20T05:40:41;98174.50;;;14.79;81.01
77431;BME280;66498;48.564;19.272;2023-05-20T05:43:07;98181.84;;;14.89;81.11
77431;BME280;66498;48.564;19.272;2023-05-20T05:45:32;98182.41;;;14.91;80.52
77431;BME280;66498;48.564;19.272;2023-05-20T05:47:58;98184.84;;;14.93;79.56
77431;BME280;66498;48.564;19.272;2023-05-20T05:50:23;98196.28;;;15.22;78.18
77431;BME280;66498;48.564;19.272;2023-05-20T05:52:49;98190.31;;;15.43;77.48
77431;BME280;66498;48.564;19.272;2023-05-20T05:55:15;98179.84;;;15.77;77.18
77431;BME280;66498;48.564;19.272;2023-05-20T05:57:40;98190.03;;;16.02;76.77
77431;BME280;66498;48.564;19.272;2023-05-20T06:00:06;98184.19;;;16.17;74.69
77431;BME280;66498;48.564;19.272;2023-05-20T06:02:32;98191.75;;;16.25;74.36
77431;BME280;66498;48.564;19.272;2023-05-20T06:05:03;98182.34;;;16.34;73.42
77431;BME280;66498;48.564;19.272;2023-05-20T06:07:29;98173.69;;;16.61;73.57
77431;BME280;66498;48.564;19.272;2023-05-20T06:09:54;98172.72;;;16.84;74.10
77431;BME280;66498;48.564;19.272;2023-05-20T06:12:20;98176.78;;;16.91;72.44
77431;BME280;66498;48.564;19.272;2023-05-20T06:14:46;98172.84;;;17.16;71.97
77431;BME280;66498;48.564;19.272;2023-05-20T06:17:12;98176.06;;;16.96;73.06
77431;BME280;66498;48.564;19.272;2023-05-20T06:19:37;98177.00;;;17.34;71.84
77431;BME280;66498;48.564;19.272;2023-05-20T06:22:03;98178.13;;;17.92;69.72
77431;BME280;66498;48.564;19.272;2023-05-20T06:24:29;98174.69;;;17.91;68.72
77431;BME280;66498;48.564;19.272;2023-05-20T06:26:54;98169.34;;;18.24;67.21
77431;BME280;66498;48.564;19.272;2023-05-20T06:29:20;98172.06;;;18.34;69.38
77431;BME280;66498;48.564;19.272;2023-05-20T06:31:45;98184.25;;;18.67;65.52
77431;BME280;66498;48.564;19.272;2023-05-20T06:34:11;98171.03;;;18.35;66.19
77431;BME280;66498;48.564;19.272;2023-05-20T06:36:36;98174.78;;;18.44;68.09
77431;BME280;66498;48.564;19.272;2023-05-20T06:39:02;98165.78;;;18.93;64.46
77431;BME280;66498;48.564;19.272;2023-05-20T06:41:30;98169.59;;;18.64;63.90
77431;BME280;66498;48.564;19.272;2023-05-20T06:43:55;98166.91;;;18.17;66.74
77431;BME280;66498;48.564;19.272;2023-05-20T06:46:21;98164.81;;;17.87;68.11
77431;BME280;66498;48.564;19.272;2023-05-20T06:48:46;98165.66;;;17.92;67.92
77431;BME280;66498;48.564;19.272;2023-05-20T06:51:12;98162.38;;;17.53;69.08
77431;BME280;66498;48.564;19.272;2023-05-20T06:53:38;98152.94;;;18.00;68.07
77431;BME280;66498;48.564;19.272;2023-05-20T06:56:03;98149.13;;;17.85;68.57
77431;BME280;66498;48.564;19.272;2023-05-20T06:58:29;98140.53;;;18.10;68.91
77431;BME280;66498;48.564;19.272;2023-05-20T07:00:55;98136.25;;;18.47;69.70
77431;BME280;66498;48.564;19.272;2023-05-20T07:03:21;98142.53;;;18.30;69.98
77431;BME280;66498;48.564;19.272;2023-05-20T07:05:47;98132.91;;;18.14;70.45
77431;BME280;66498;48.564;19.272;2023-05-20T07:08:12;98130.25;;;18.66;69.56
77431;BME280;66498;48.564;19.272;2023-05-20T07:10:38;98135.41;;;18.83;69.66
77431;BME280;66498;48.564;19.272;2023-05-20T07:13:03;98130.53;;;19.33;65.42
77431;BME280;66498;48.564;19.272;2023-05-20T07:15:29;98127.91;;;19.53;66.19
77431;BME280;66498;48.564;19.272;2023-05-20T07:17:54;98124.44;;;20.14;62.81
77431;BME280;66498;48.564;19.272;2023-05-20T07:20:20;98121.78;;;20.35;63.04
77431;BME280;66498;48.564;19.272;2023-05-20T07:22:46;98119.06;;;20.55;60.55
77431;BME280;66498;48.564;19.272;2023-05-20T07:25:13;98109.63;;;20.83;60.43
77431;BME280;66498;48.564;19.272;2023-05-20T07:27:38;98119.31;;;21.18;56.92
77431;BME280;66498;48.564;19.272;2023-05-20T07:30:04;98110.13;;;21.45;59.58
77431;BME280;66498;48.564;19.272;2023-05-20T07:32:30;98112.78;;;21.45;56.33
77431;BME280;66498;48.564;19.272;2023-05-20T07:34:56;98107.59;;;21.64;55.82
77431;BME280;66498;48.564;19.272;2023-05-20T07:37:21;98106.44;;;21.70;60.41
77431;BME280;66498;48.564;19.272;2023-05-20T07:39:47;98101.00;;;21.46;53.81
77431;BME280;66498;48.564;19.272;2023-05-20T07:42:12;98097.69;;;21.93;54.35
77431;BME280;66498;48.564;19.272;2023-05-20T07:44:38;98102.00;;;21.60;56.74
77431;BME280;66498;48.564;19.272;2023-05-20T07:47:04;98097.75;;;21.88;55.92
77431;BME280;66498;48.564;19.272;2023-05-20T07:49:30;98097.56;;;22.38;57.21
77431;BME280;66498;48.564;19.272;2023-05-20T07:51:56;98097.28;;;22.15;54.08
77431;BME280;66498;48.564;19.272;2023-05-20T07:54:23;98097.41;;;22.29;55.17
77431;BME280;66498;48.564;19.272;2023-05-20T07:56:50;98096.84;;;22.99;53.40
77431;BME280;66498;48.564;19.272;2023-05-20T07:59:16;98087.38;;;22.40;55.29
77431;BME280;66498;48.564;19.272;2023-05-20T08:01:41;98091.81;;;22.50;54.95
77431;BME280;66498;48.564;19.272;2023-05-20T08:04:07;98091.25;;;22.29;52.99
77431;BME280;66498;48.564;19.272;2023-05-20T08:06:33;98088.75;;;22.08;51.33
77431;BME280;66498;48.564;19.272;2023-05-20T08:09:00;98094.09;;;22.37;52.06
77431;BME280;66498;48.564;19.272;2023-05-20T08:11:26;98097.31;;;22.82;56.84
77431;BME280;66498;48.564;19.272;2023-05-20T08:13:52;98092.56;;;22.79;51.50
77431;BME280;66498;48.564;19.272;2023-05-20T08:16:20;98081.97;;;22.69;53.84
77431;BME280;66498;48.564;19.272;2023-05-20T08:18:49;98088.22;;;22.83;53.16
77431;BME280;66498;48.564;19.272;2023-05-20T08:21:15;98093.28;;;22.37;50.66
77431;BME280;66498;48.564;19.272;2023-05-20T08:23:41;98084.28;;;22.76;56.05
77431;BME280;66498;48.564;19.272;2023-05-20T08:26:06;98087.44;;;22.35;48.72
77431;BME280;66498;48.564;19.272;2023-05-20T08:28:32;98085.34;;;22.99;52.54
77431;BME280;66498;48.564;19.272;2023-05-20T08:31:00;98082.06;;;22.83;49.17
77431;BME280;66498;48.564;19.272;2023-05-20T08:33:26;98082.75;;;23.12;52.25
77431;BME280;66498;48.564;19.272;2023-05-20T08:35:52;98082.47;;;23.14;49.26
77431;BME280;66498;48.564;19.272;2023-05-20T08:38:17;98084.38;;;22.89;49.93
77431;BME280;66498;48.564;19.272;2023-05-20T08:40:43;98084.13;;;23.29;54.93
77431;BME280;66498;48.564;19.272;2023-05-20T08:43:09;98089.91;;;23.36;49.42
77431;BME280;66498;48.564;19.272;2023-05-20T08:45:36;98092.41;;;23.13;51.54
77431;BME280;66498;48.564;19.272;2023-05-20T08:48:03;98089.00;;;23.27;50.19
77431;BME280;66498;48.564;19.272;2023-05-20T08:50:32;98085.84;;;23.20;53.04
77431;BME280;66498;48.564;19.272;2023-05-20T08:53:00;98076.44;;;23.41;51.10
77431;BME280;66498;48.564;19.272;2023-05-20T08:55:35;98078.94;;;23.70;53.25
77431;BME280;66498;48.564;19.272;2023-05-20T08:58:02;98071.53;;;23.81;52.82
77431;BME280;66498;48.564;19.272;2023-05-20T09:00:28;98070.50;;;24.10;50.72
77431;BME280;66498;48.564;19.272;2023-05-20T09:02:55;98067.78;;;23.82;49.46
77431;BME280;66498;48.564;19.272;2023-05-20T09:05:21;98062.13;;;23.83;47.46
77431;BME280;66498;48.564;19.272;2023-05-20T09:07:47;98069.78;;;24.04;47.82
77431;BME280;66498;48.564;19.272;2023-05-20T09:10:13;98066.13;;;24.14;51.03
77431;BME280;66498;48.564;19.272;2023-05-20T09:12:38;98062.94;;;24.12;49.56
77431;BME280;66498;48.564;19.272;2023-05-20T09:15:05;98056.31;;;24.37;51.65
77431;BME280;66498;48.564;19.272;2023-05-20T09:17:33;98059.59;;;24.06;50.44
77431;BME280;66498;48.564;19.272;2023-05-20T09:19:59;98068.03;;;24.13;49.33
77431;BME280;66498;48.564;19.272;2023-05-20T09:22:27;98058.59;;;24.16;49.65
77431;BME280;66498;48.564;19.272;2023-05-20T09:24:54;98055.44;;;24.41;53.26
77431;BME280;66498;48.564;19.272;2023-05-20T09:27:20;98064.16;;;24.05;48.81
77431;BME280;66498;48.564;19.272;2023-05-20T09:29:47;98065.63;;;24.12;48.00
77431;BME280;66498;48.564;19.272;2023-05-20T09:32:13;98058.03;;;24.33;50.78
77431;BME280;66498;48.564;19.272;2023-05-20T09:34:39;98061.19;;;24.21;49.60
77431;BME280;66498;48.564;19.272;2023-05-20T09:37:08;98057.59;;;24.12;48.70
77431;BME280;66498;48.564;19.272;2023-05-20T09:39:55;98056.41;;;24.31;48.36
77431;BME280;66498;48.564;19.272;2023-05-20T09:42:25;98047.69;;;24.67;52.77
77431;BME280;66498;48.564;19.272;2023-05-20T09:44:54;98052.94;;;24.59;49.49
77431;BME280;66498;48.564;19.272;2023-05-20T09:47:22;98061.78;;;24.31;48.76
77431;BME280;66498;48.564;19.272;2023-05-20T09:49:50;98053.84;;;24.54;50.40
77431;BME280;66498;48.564;19.272;2023-05-20T09:52:17;98052.44;;;24.70;48.05
77431;BME280;66498;48.564;19.272;2023-05-20T09:54:43;98047.75;;;24.76;52.04
77431;BME280;66498;48.564;19.272;2023-05-20T09:57:09;98047.38;;;24.69;44.30
77431;BME280;66498;48.564;19.272;2023-05-20T09:59:36;98041.91;;;25.10;49.04
77431;BME280;66498;48.564;19.272;2023-05-20T10:02:02;98041.66;;;24.98;48.73
77431;BME280;66498;48.564;19.272;2023-05-20T10:04:29;98046.94;;;24.89;44.80
77431;BME280;66498;48.564;19.272;2023-05-20T10:07:25;98043.59;;;25.06;48.50
77431;BME280;66498;48.564;19.272;2023-05-20T10:15:31;98037.56;;;25.14;47.21
77431;BME280;66498;48.564;19.272;2023-05-20T10:20:47;98029.06;;;25.43;48.03
77431;BME280;66498;48.564;19.272;2023-05-20T10:23:23;98021.94;;;25.39;45.34
77431;BME280;66498;48.564;19.272;2023-05-20T10:25:53;98020.22;;;25.20;47.46
77431;BME280;66498;48.564;19.272;2023-05-20T10:28:34;98026.22;;;25.04;43.87
77431;BME280;66498;48.564;19.272;2023-05-20T10:31:13;98017.41;;;25.48;47.56
77431;BME280;66498;48.564;19.272;2023-05-20T10:33:41;98010.44;;;25.47;43.88
77431;BME280;66498;48.564;19.272;2023-05-20T10:36:07;98007.44;;;25.48;45.04
77431;BME280;66498;48.564;19.272;2023-05-20T10:38:32;97998.88;;;25.46;44.86
77431;BME280;66498;48.564;19.272;2023-05-20T10:41:07;98000.53;;;25.56;43.00
77431;BME280;66498;48.564;19.272;2023-05-20T10:43:33;97990.97;;;26.04;44.93
77431;BME280;66498;48.564;19.272;2023-05-20T10:45:58;97990.59;;;25.34;43.78
77431;BME280;66498;48.564;19.272;2023-05-20T10:48:29;97985.44;;;25.46;43.09
77431;BME280;66498;48.564;19.272;2023-05-20T10:50:58;97983.19;;;25.71;42.12
77431;BME280;66498;48.564;19.272;2023-05-20T10:53:26;97986.44;;;25.28;40.62
77431;BME280;66498;48.564;19.272;2023-05-20T10:55:53;97988.06;;;25.60;42.75
77431;BME280;66498;48.564;19.272;2023-05-20T10:58:21;97975.78;;;25.68;38.42
77431;BME280;66498;48.564;19.272;2023-05-20T11:00:49;97974.03;;;26.03;44.22
77431;BME280;66498;48.564;19.272;2023-05-20T11:03:20;97972.34;;;26.16;43.27
77431;BME280;66498;48.564;19.272;2023-05-20T11:05:46;97968.00;;;25.98;43.38
77431;BME280;66498;48.564;19.272;2023-05-20T11:08:13;97967.03;;;25.93;45.71
77431;BME280;66498;48.564;19.272;2023-05-20T11:10:40;97969.13;;;25.74;45.10
77431;BME280;66498;48.564;19.272;2023-05-20T11:13:06;97958.09;;;25.44;44.10
77431;BME280;66498;48.564;19.272;2023-05-20T11:15:34;97959.66;;;25.77;44.61
77431;BME280;66498;48.564;19.272;2023-05-20T11:18:02;97959.16;;;25.66;43.22
77431;BME280;66498;48.564;19.272;2023-05-20T11:20:30;97959.63;;;25.99;40.29
77431;BME280;66498;48.564;19.272;2023-05-20T11:23:00;97954.22;;;25.90;42.80
77431;BME280;66498;48.564;19.272;2023-05-20T11:25:26;97945.03;;;26.49;41.36
77431;BME280;66498;48.564;19.272;2023-05-20T11:27:53;97938.56;;;26.50;40.24
77431;BME280;66498;48.564;19.272;2023-05-20T11:30:19;97943.00;;;25.97;39.87
77431;BME280;66498;48.564;19.272;2023-05-20T11:33:03;97933.00;;;26.46;43.14
77431;BME280;66498;48.564;19.272;2023-05-20T11:35:30;97928.72;;;26.36;44.51
77431;BME280;66498;48.564;19.272;2023-05-20T11:40:27;97933.97;;;25.93;41.81
77431;BME280;66498;48.564;19.272;2023-05-20T11:42:54;97934.28;;;25.91;43.03
77431;BME280;66498;48.564;19.272;2023-05-20T11:45:21;97932.88;;;25.63;40.70
77431;BME280;66498;48.564;19.272;2023-05-20T11:48:08;97937.41;;;25.85;41.81
77431;BME280;66498;48.564;19.272;2023-05-20T11:50:36;97933.22;;;25.61;42.90
77431;BME280;66498;48.564;19.272;2023-05-20T11:53:04;97939.09;;;25.72;44.89
77431;BME280;66498;48.564;19.272;2023-05-20T11:55:31;97939.25;;;26.07;42.44
77431;BME280;66498;48.564;19.272;2023-05-20T11:57:58;97938.13;;;26.08;43.58
77431;BME280;66498;48.564;19.272;2023-05-20T12:00:24;97939.03;;;25.86;40.74
77431;BME280;66498;48.564;19.272;2023-05-20T12:02:50;97934.63;;;25.99;42.01
77431;BME280;66498;48.564;19.272;2023-05-20T12:05:16;97941.59;;;26.00;40.68
77431;BME280;66498;48.564;19.272;2023-05-20T12:07:43;97940.06;;;26.16;40.28
77431;BME280;66498;48.564;19.272;2023-05-20T12:10:09;97942.34;;;26.49;44.00
77431;BME280;66498;48.564;19.272;2023-05-20T12:12:35;97934.66;;;26.07;42.44
77431;BME280;66498;48.564;19.272;2023-05-20T12:15:04;97931.38;;;26.19;42.13
77431;BME280;66498;48.564;19.272;2023-05-20T12:17:45;97937.91;;;25.56;40.96
77431;BME280;66498;48.564;19.272;2023-05-20T12:20:13;97938.63;;;26.10;42.54
77431;BME280;66498;48.564;19.272;2023-05-20T12:22:40;97931.81;;;26.12;39.86
77431;BME280;66498;48.564;19.272;2023-05-20T12:25:29;97940.00;;;25.67;44.79
77431;BME280;66498;48.564;19.272;2023-05-20T12:28:24;97927.69;;;25.35;40.04
77431;BME280;66498;48.564;19.272;2023-05-20T12:30:50;97929.69;;;25.52;42.90
77431;BME280;66498;48.564;19.272;2023-05-20T12:33:16;97923.00;;;25.41;41.65
77431;BME280;66498;48.564;19.272;2023-05-20T12:35:42;97935.63;;;25.71;43.19
77431;BME280;66498;48.564;19.272;2023-05-20T12:38:09;97936.50;;;25.98;43.22
77431;BME280;66498;48.564;19.272;2023-05-20T12:40:35;97927.66;;;25.89;40.12
77431;BME280;66498;48.564;19.272;2023-05-20T12:43:02;97931.28;;;25.93;40.43
77431;BME280;66498;48.564;19.272;2023-05-20T12:45:28;97930.50;;;25.92;41.44
77431;BME280;66498;48.564;19.272;2023-05-20T12:47:55;97919.72;;;25.53;40.63
77431;BME280;66498;48.564;19.272;2023-05-20T12:50:22;97921.03;;;25.64;40.41
77431;BME280;66498;48.564;19.272;2023-05-20T12:52:51;97918.06;;;26.14;44.31
77431;BME280;66498;48.564;19.272;2023-05-20T12:55:18;97914.59;;;26.31;39.64
77431;BME280;66498;48.564;19.272;2023-05-20T13:19:00;97899.00;;;25.53;39.92
77431;BME280;66498;48.564;19.272;2023-05-20T13:22:12;97892.16;;;25.47;38.07
77431;BME280;66498;48.564;19.272;2023-05-20T13:54:48;97874.94;;;25.17;39.68